North Chester, Massachusetts
Current Conditions -  °F | °C
As of 4:53 AM on Sunday 23 Nov 2014 (Local Time) from KBAF Reporting Station
Scattered Clouds Scattered Clouds  
Wind Chill:   Ceiling: Unl
Heat Index:   Visibility: 8mi
Dew Point: -1°   Wind: 3mph
Humidity: 89%   Direction: 300°WNW
Pressure: 30.1"   Gusts: NA
Location:  42.3047°N, 72.879°W
Report Text: KBAF 230953Z AUTO 30003KT 8SM SCT095 01/M01 A3010 RMK AO2 RAE00 SLP196 P0000 T00111006
Loading
Personal Weather Stations






























Interactive Weather Map New forecast layout! Learn more

10-Day Weather Forecast

Advertisements
Track Severe Weather on mobile